sensor_id;sensor_type;location;lat;lon;timestamp;pressure;altitude;pressure_sealevel;temperature
65765;BMP180;52915;53.718;19.946;2023-03-13T00:02:34;99630.20;;;-0.80
65765;BMP180;52915;53.718;19.946;2023-03-13T00:07:38;99639.40;;;-0.70
65765;BMP180;52915;53.718;19.946;2023-03-13T00:12:42;99627.20;;;-0.42
65765;BMP180;52915;53.718;19.946;2023-03-13T00:17:46;99633.20;;;-0.30
65765;BMP180;52915;53.718;19.946;2023-03-13T00:22:49;99624.00;;;-0.38
65765;BMP180;52915;53.718;19.946;2023-03-13T00:27:53;99615.40;;;-0.44
65765;BMP180;52915;53.718;19.946;2023-03-13T00:32:57;99605.60;;;-0.50
65765;BMP180;52915;53.718;19.946;2023-03-13T00:38:00;99597.00;;;-0.60
65765;BMP180;52915;53.718;19.946;2023-03-13T00:43:04;99586.00;;;-0.70
65765;BMP180;52915;53.718;19.946;2023-03-13T00:48:08;99582.20;;;-0.70
65765;BMP180;52915;53.718;19.946;2023-03-13T00:53:11;99569.80;;;-0.70
65765;BMP180;52915;53.718;19.946;2023-03-13T00:58:15;99572.40;;;-0.70
65765;BMP180;52915;53.718;19.946;2023-03-13T01:03:21;99560.80;;;-0.70
65765;BMP180;52915;53.718;19.946;2023-03-13T01:08:29;99563.60;;;-0.60
65765;BMP180;52915;53.718;19.946;2023-03-13T01:13:34;99548.80;;;-0.30
65765;BMP180;52915;53.718;19.946;2023-03-13T01:18:43;99532.00;;;-0.10
65765;BMP180;52915;53.718;19.946;2023-03-13T01:23:49;99511.60;;;-0.20
65765;BMP180;52915;53.718;19.946;2023-03-13T01:28:54;99500.80;;;-0.40
65765;BMP180;52915;53.718;19.946;2023-03-13T01:34:02;99490.60;;;-0.50
65765;BMP180;52915;53.718;19.946;2023-03-13T01:39:06;99479.40;;;-0.60
65765;BMP180;52915;53.718;19.946;2023-03-13T01:44:25;99485.00;;;-0.70
65765;BMP180;52915;53.718;19.946;2023-03-13T01:49:33;99495.40;;;-0.80
65765;BMP180;52915;53.718;19.946;2023-03-13T01:55:03;99505.00;;;-0.80
65765;BMP180;52915;53.718;19.946;2023-03-13T02:00:13;99504.60;;;-0.90
65765;BMP180;52915;53.718;19.946;2023-03-13T02:05:23;99488.20;;;-0.92
65765;BMP180;52915;53.718;19.946;2023-03-13T02:10:31;99492.00;;;-0.90
65765;BMP180;52915;53.718;19.946;2023-03-13T02:15:36;99482.20;;;-0.70
65765;BMP180;52915;53.718;19.946;2023-03-13T02:20:40;99466.60;;;-0.60
65765;BMP180;52915;53.718;19.946;2023-03-13T02:25:53;99456.60;;;-0.50
65765;BMP180;52915;53.718;19.946;2023-03-13T02:30:57;99441.80;;;-0.44
65765;BMP180;52915;53.718;19.946;2023-03-13T02:36:02;99437.00;;;-0.50
65765;BMP180;52915;53.718;19.946;2023-03-13T02:41:07;99429.20;;;-0.50
65765;BMP180;52915;53.718;19.946;2023-03-13T02:46:18;99423.20;;;-0.50
65765;BMP180;52915;53.718;19.946;2023-03-13T02:51:39;99420.40;;;-0.20
65765;BMP180;52915;53.718;19.946;2023-03-13T02:56:48;99418.00;;;0.00
65765;BMP180;52915;53.718;19.946;2023-03-13T03:01:53;99421.40;;;0.10
65765;BMP180;52915;53.718;19.946;2023-03-13T03:06:57;99435.40;;;0.30
65765;BMP180;52915;53.718;19.946;2023-03-13T03:12:01;99443.00;;;0.40
65765;BMP180;52915;53.718;19.946;2023-03-13T03:17:04;99447.80;;;0.38
65765;BMP180;52915;53.718;19.946;2023-03-13T03:22:08;99447.20;;;0.40
65765;BMP180;52915;53.718;19.946;2023-03-13T03:27:12;99452.40;;;0.60
65765;BMP180;52915;53.718;19.946;2023-03-13T03:32:16;99448.40;;;0.70
65765;BMP180;52915;53.718;19.946;2023-03-13T03:37:19;99446.60;;;0.70
65765;BMP180;52915;53.718;19.946;2023-03-13T03:42:23;99452.00;;;0.60
65765;BMP180;52915;53.718;19.946;2023-03-13T03:47:27;99447.20;;;0.52
65765;BMP180;52915;53.718;19.946;2023-03-13T03:52:31;99429.60;;;0.60
65765;BMP180;52915;53.718;19.946;2023-03-13T03:57:35;99418.00;;;0.70
65765;BMP180;52915;53.718;19.946;2023-03-13T04:02:39;99419.20;;;0.90
65765;BMP180;52915;53.718;19.946;2023-03-13T04:07:43;99417.40;;;0.90
65765;BMP180;52915;53.718;19.946;2023-03-13T04:12:46;99423.00;;;0.80
65765;BMP180;52915;53.718;19.946;2023-03-13T04:17:50;99420.60;;;0.70
65765;BMP180;52915;53.718;19.946;2023-03-13T04:22:54;99399.60;;;0.70
65765;BMP180;52915;53.718;19.946;2023-03-13T04:27:58;99393.40;;;0.88
65765;BMP180;52915;53.718;19.946;2023-03-13T04:33:02;99391.40;;;1.00
65765;BMP180;52915;53.718;19.946;2023-03-13T04:38:05;99388.00;;;1.20
65765;BMP180;52915;53.718;19.946;2023-03-13T04:43:09;99384.40;;;1.10
65765;BMP180;52915;53.718;19.946;2023-03-13T04:48:13;99370.20;;;1.10
65765;BMP180;52915;53.718;19.946;2023-03-13T04:53:16;99363.60;;;1.30
65765;BMP180;52915;53.718;19.946;2023-03-13T04:58:20;99363.20;;;1.42
65765;BMP180;52915;53.718;19.946;2023-03-13T05:03:24;99367.20;;;1.60
65765;BMP180;52915;53.718;19.946;2023-03-13T05:08:27;99354.80;;;1.70
65765;BMP180;52915;53.718;19.946;2023-03-13T05:13:31;99347.20;;;1.82
65765;BMP180;52915;53.718;19.946;2023-03-13T05:18:35;99353.40;;;1.90
65765;BMP180;52915;53.718;19.946;2023-03-13T05:23:39;99336.40;;;2.00
65765;BMP180;52915;53.718;19.946;2023-03-13T05:28:43;99344.80;;;2.00
65765;BMP180;52915;53.718;19.946;2023-03-13T05:33:48;99330.20;;;2.10
65765;BMP180;52915;53.718;19.946;2023-03-13T05:38:52;99325.60;;;2.10
65765;BMP180;52915;53.718;19.946;2023-03-13T05:43:55;99306.80;;;2.20
65765;BMP180;52915;53.718;19.946;2023-03-13T05:48:59;99302.40;;;2.20
65765;BMP180;52915;53.718;19.946;2023-03-13T05:54:05;99302.60;;;2.22
65765;BMP180;52915;53.718;19.946;2023-03-13T05:59:11;99310.60;;;2.30
65765;BMP180;52915;53.718;19.946;2023-03-13T06:04:16;99298.20;;;2.30
65765;BMP180;52915;53.718;19.946;2023-03-13T06:09:20;99292.20;;;2.30
65765;BMP180;52915;53.718;19.946;2023-03-13T06:14:25;99283.00;;;2.30
65765;BMP180;52915;53.718;19.946;2023-03-13T06:19:29;99287.60;;;2.30
65765;BMP180;52915;53.718;19.946;2023-03-13T06:24:33;99282.80;;;2.36
65765;BMP180;52915;53.718;19.946;2023-03-13T06:29:37;99275.00;;;2.40
65765;BMP180;52915;53.718;19.946;2023-03-13T06:34:41;99260.80;;;2.46
65765;BMP180;52915;53.718;19.946;2023-03-13T06:39:45;99254.80;;;2.50
65765;BMP180;52915;53.718;19.946;2023-03-13T06:44:49;99256.60;;;2.60
65765;BMP180;52915;53.718;19.946;2023-03-13T06:49:53;99262.60;;;2.70
65765;BMP180;52915;53.718;19.946;2023-03-13T06:54:57;99258.20;;;2.70
65765;BMP180;52915;53.718;19.946;2023-03-13T07:00:00;99253.20;;;2.80
65765;BMP180;52915;53.718;19.946;2023-03-13T07:05:05;99242.80;;;2.98
65765;BMP180;52915;53.718;19.946;2023-03-13T07:10:10;99238.40;;;2.90
65765;BMP180;52915;53.718;19.946;2023-03-13T07:15:14;99232.40;;;2.90
65765;BMP180;52915;53.718;19.946;2023-03-13T07:20:18;99224.00;;;2.90
65765;BMP180;52915;53.718;19.946;2023-03-13T07:25:22;99217.00;;;3.00
65765;BMP180;52915;53.718;19.946;2023-03-13T07:30:27;99215.80;;;3.10
65765;BMP180;52915;53.718;19.946;2023-03-13T07:35:31;99210.80;;;3.10
65765;BMP180;52915;53.718;19.946;2023-03-13T07:40:35;99209.40;;;3.22
65765;BMP180;52915;53.718;19.946;2023-03-13T07:45:38;99208.20;;;3.30
65765;BMP180;52915;53.718;19.946;2023-03-13T07:50:42;99205.00;;;3.40
65765;BMP180;52915;53.718;19.946;2023-03-13T07:56:03;99196.80;;;3.50
65765;BMP180;52915;53.718;19.946;2023-03-13T08:06:18;99186.20;;;3.60
65765;BMP180;52915;53.718;19.946;2023-03-13T08:11:25;99183.80;;;3.60
65765;BMP180;52915;53.718;19.946;2023-03-13T08:16:32;99175.80;;;3.60
65765;BMP180;52915;53.718;19.946;2023-03-13T08:21:37;99169.60;;;3.60
65765;BMP180;52915;53.718;19.946;2023-03-13T08:26:41;99161.40;;;3.60
65765;BMP180;52915;53.718;19.946;2023-03-13T08:31:49;99160.80;;;3.70
65765;BMP180;52915;53.718;19.946;2023-03-13T08:36:58;99151.00;;;3.80
65765;BMP180;52915;53.718;19.946;2023-03-13T08:42:02;99144.60;;;3.90
65765;BMP180;52915;53.718;19.946;2023-03-13T08:47:07;99134.20;;;3.96
65765;BMP180;52915;53.718;19.946;2023-03-13T08:52:11;99129.00;;;4.10
65765;BMP180;52915;53.718;19.946;2023-03-13T08:57:15;99123.20;;;4.10
65765;BMP180;52915;53.718;19.946;2023-03-13T09:02:19;99111.40;;;4.10
65765;BMP180;52915;53.718;19.946;2023-03-13T09:07:23;99106.40;;;4.10
65765;BMP180;52915;53.718;19.946;2023-03-13T09:12:29;99113.00;;;4.10
65765;BMP180;52915;53.718;19.946;2023-03-13T09:17:34;99109.00;;;4.10
65765;BMP180;52915;53.718;19.946;2023-03-13T09:22:37;99104.60;;;4.20
65765;BMP180;52915;53.718;19.946;2023-03-13T09:27:41;99100.20;;;4.30
65765;BMP180;52915;53.718;19.946;2023-03-13T09:32:44;99085.80;;;4.42
65765;BMP180;52915;53.718;19.946;2023-03-13T09:37:49;99077.60;;;4.70
65765;BMP180;52915;53.718;19.946;2023-03-13T09:42:58;99061.00;;;4.90
65765;BMP180;52915;53.718;19.946;2023-03-13T09:48:39;99060.20;;;5.18
65765;BMP180;52915;53.718;19.946;2023-03-13T09:59:19;99042.20;;;5.80
65765;BMP180;52915;53.718;19.946;2023-03-13T10:04:39;99031.00;;;6.10
65765;BMP180;52915;53.718;19.946;2023-03-13T10:09:44;99019.80;;;6.50
65765;BMP180;52915;53.718;19.946;2023-03-13T10:15:32;99009.20;;;6.80
65765;BMP180;52915;53.718;19.946;2023-03-13T10:20:39;99003.20;;;7.08
65765;BMP180;52915;53.718;19.946;2023-03-13T10:25:43;98997.00;;;7.00
65765;BMP180;52915;53.718;19.946;2023-03-13T10:30:53;99005.40;;;7.00
65765;BMP180;52915;53.718;19.946;2023-03-13T10:36:12;98989.20;;;7.10
65765;BMP180;52915;53.718;19.946;2023-03-13T10:41:28;98975.80;;;7.40
65765;BMP180;52915;53.718;19.946;2023-03-13T10:46:39;98958.60;;;7.70
65765;BMP180;52915;53.718;19.946;2023-03-13T10:51:56;98949.20;;;7.80
65765;BMP180;52915;53.718;19.946;2023-03-13T10:57:29;98939.80;;;8.00
65765;BMP180;52915;53.718;19.946;2023-03-13T11:02:38;98923.00;;;8.38
65765;BMP180;52915;53.718;19.946;2023-03-13T11:07:42;98913.80;;;8.60
65765;BMP180;52915;53.718;19.946;2023-03-13T11:12:54;98908.20;;;8.60
65765;BMP180;52915;53.718;19.946;2023-03-13T11:18:19;98898.00;;;8.60
65765;BMP180;52915;53.718;19.946;2023-03-13T11:23:36;98888.40;;;8.50
65765;BMP180;52915;53.718;19.946;2023-03-13T11:34:39;98865.40;;;8.60
65765;BMP180;52915;53.718;19.946;2023-03-13T11:40:17;98860.00;;;8.70
65765;BMP180;52915;53.718;19.946;2023-03-13T11:46:11;98855.80;;;8.60
65765;BMP180;52915;53.718;19.946;2023-03-13T11:56:55;98831.00;;;8.20
65765;BMP180;52915;53.718;19.946;2023-03-13T12:02:17;98817.40;;;8.10
65765;BMP180;52915;53.718;19.946;2023-03-13T12:12:55;98794.40;;;8.10
65765;BMP180;52915;53.718;19.946;2023-03-13T12:18:16;98782.00;;;7.98
65765;BMP180;52915;53.718;19.946;2023-03-13T12:23:45;98773.80;;;7.90
65765;BMP180;52915;53.718;19.946;2023-03-13T12:29:16;98767.60;;;7.80
65765;BMP180;52915;53.718;19.946;2023-03-13T12:40:48;98746.00;;;7.78
65765;BMP180;52915;53.718;19.946;2023-03-13T13:02:23;98691.00;;;7.76
65765;BMP180;52915;53.718;19.946;2023-03-13T13:07:33;98676.60;;;7.80
65765;BMP180;52915;53.718;19.946;2023-03-13T13:12:44;98669.60;;;7.80
65765;BMP180;52915;53.718;19.946;2023-03-13T13:23:26;98645.80;;;7.82
65765;BMP180;52915;53.718;19.946;2023-03-13T13:28:34;98612.00;;;7.80
65765;BMP180;52915;53.718;19.946;2023-03-13T13:33:39;98622.20;;;7.80
65765;BMP180;52915;53.718;19.946;2023-03-13T13:38:44;98621.60;;;7.78
65765;BMP180;52915;53.718;19.946;2023-03-13T13:44:27;98588.20;;;7.80
65765;BMP180;52915;53.718;19.946;2023-03-13T13:49:51;98584.40;;;7.80
65765;BMP180;52915;53.718;19.946;2023-03-13T13:54:58;98584.60;;;7.90
65765;BMP180;52915;53.718;19.946;2023-03-13T14:00:25;98574.60;;;8.00
65765;BMP180;52915;53.718;19.946;2023-03-13T14:05:31;98569.40;;;8.00
65765;BMP180;52915;53.718;19.946;2023-03-13T14:10:40;98568.60;;;8.00
65765;BMP180;52915;53.718;19.946;2023-03-13T14:15:52;98557.60;;;8.10
65765;BMP180;52915;53.718;19.946;2023-03-13T14:21:04;98539.40;;;8.10
65765;BMP180;52915;53.718;19.946;2023-03-13T14:26:27;98536.00;;;8.10
65765;BMP180;52915;53.718;19.946;2023-03-13T14:31:36;98531.00;;;8.10
65765;BMP180;52915;53.718;19.946;2023-03-13T14:36:57;98518.20;;;8.08
65765;BMP180;52915;53.718;19.946;2023-03-13T14:42:25;98504.00;;;8.10
65765;BMP180;52915;53.718;19.946;2023-03-13T14:47:54;98500.00;;;8.10
65765;BMP180;52915;53.718;19.946;2023-03-13T14:53:28;98495.80;;;8.10
65765;BMP180;52915;53.718;19.946;2023-03-13T14:58:37;98492.60;;;8.10
65765;BMP180;52915;53.718;19.946;2023-03-13T15:03:53;98489.00;;;8.28
65765;BMP180;52915;53.718;19.946;2023-03-13T15:09:23;98494.40;;;8.40
65765;BMP180;52915;53.718;19.946;2023-03-13T15:14:47;98486.40;;;8.40
65765;BMP180;52915;53.718;19.946;2023-03-13T15:19:58;98484.00;;;8.40
65765;BMP180;52915;53.718;19.946;2023-03-13T15:25:22;98469.00;;;8.30
65765;BMP180;52915;53.718;19.946;2023-03-13T15:30:48;98465.60;;;8.40
65765;BMP180;52915;53.718;19.946;2023-03-13T15:35:59;98464.80;;;8.44
65765;BMP180;52915;53.718;19.946;2023-03-13T15:41:15;98460.00;;;8.50
65765;BMP180;52915;53.718;19.946;2023-03-13T15:46:27;98458.20;;;8.50
65765;BMP180;52915;53.718;19.946;2023-03-13T15:51:45;98459.40;;;8.50
65765;BMP180;52915;53.718;19.946;2023-03-13T15:56:58;98458.00;;;8.52
65765;BMP180;52915;53.718;19.946;2023-03-13T16:02:05;98454.80;;;8.50
65765;BMP180;52915;53.718;19.946;2023-03-13T16:07:19;98454.20;;;8.50
65765;BMP180;52915;53.718;19.946;2023-03-13T16:12:23;98455.00;;;8.50
65765;BMP180;52915;53.718;19.946;2023-03-13T16:17:27;98455.20;;;8.50
65765;BMP180;52915;53.718;19.946;2023-03-13T16:22:32;98461.80;;;8.50
65765;BMP180;52915;53.718;19.946;2023-03-13T16:27:36;98462.40;;;8.50
65765;BMP180;52915;53.718;19.946;2023-03-13T16:32:40;98472.00;;;8.50
65765;BMP180;52915;53.718;19.946;2023-03-13T16:37:44;98480.60;;;8.60
65765;BMP180;52915;53.718;19.946;2023-03-13T16:42:49;98484.40;;;8.60
65765;BMP180;52915;53.718;19.946;2023-03-13T16:47:53;98484.00;;;8.60
65765;BMP180;52915;53.718;19.946;2023-03-13T16:52:58;98488.60;;;8.64
65765;BMP180;52915;53.718;19.946;2023-03-13T16:58:02;98496.80;;;8.64
65765;BMP180;52915;53.718;19.946;2023-03-13T17:03:07;98502.40;;;8.70
65765;BMP180;52915;53.718;19.946;2023-03-13T17:08:12;98499.40;;;8.70
65765;BMP180;52915;53.718;19.946;2023-03-13T17:13:17;98511.40;;;8.80
65765;BMP180;52915;53.718;19.946;2023-03-13T17:18:22;98514.20;;;8.80
65765;BMP180;52915;53.718;19.946;2023-03-13T17:23:26;98498.60;;;8.90
65765;BMP180;52915;53.718;19.946;2023-03-13T17:28:31;98503.60;;;9.04
65765;BMP180;52915;53.718;19.946;2023-03-13T17:33:35;98505.60;;;9.10
65765;BMP180;52915;53.718;19.946;2023-03-13T17:38:39;98500.00;;;9.20
65765;BMP180;52915;53.718;19.946;2023-03-13T17:43:43;98508.60;;;9.30
65765;BMP180;52915;53.718;19.946;2023-03-13T17:48:51;98505.00;;;9.40
65765;BMP180;52915;53.718;19.946;2023-03-13T17:53:56;98509.20;;;9.40
65765;BMP180;52915;53.718;19.946;2023-03-13T17:59:14;98512.80;;;9.50
65765;BMP180;52915;53.718;19.946;2023-03-13T18:04:18;98516.40;;;9.50
65765;BMP180;52915;53.718;19.946;2023-03-13T18:09:23;98503.00;;;9.50
65765;BMP180;52915;53.718;19.946;2023-03-13T18:14:27;98505.80;;;9.50
65765;BMP180;52915;53.718;19.946;2023-03-13T18:19:31;98511.40;;;9.50
65765;BMP180;52915;53.718;19.946;2023-03-13T18:24:35;98514.80;;;9.64
65765;BMP180;52915;53.718;19.946;2023-03-13T18:29:41;98518.80;;;9.76
65765;BMP180;52915;53.718;19.946;2023-03-13T18:34:47;98524.00;;;9.90
65765;BMP180;52915;53.718;19.946;2023-03-13T18:39:51;98514.00;;;9.90
65765;BMP180;52915;53.718;19.946;2023-03-13T18:44:58;98509.80;;;9.90
65765;BMP180;52915;53.718;19.946;2023-03-13T18:50:17;98506.40;;;9.90
65765;BMP180;52915;53.718;19.946;2023-03-13T18:55:25;98505.00;;;9.90
65765;BMP180;52915;53.718;19.946;2023-03-13T19:00:33;98499.00;;;9.86
65765;BMP180;52915;53.718;19.946;2023-03-13T19:05:39;98495.80;;;9.80
65765;BMP180;52915;53.718;19.946;2023-03-13T19:10:44;98489.80;;;9.70
65765;BMP180;52915;53.718;19.946;2023-03-13T19:15:50;98484.20;;;9.70
65765;BMP180;52915;53.718;19.946;2023-03-13T19:20:55;98481.00;;;9.60
65765;BMP180;52915;53.718;19.946;2023-03-13T19:26:07;98471.80;;;9.60
65765;BMP180;52915;53.718;19.946;2023-03-13T19:31:14;98469.60;;;9.60
65765;BMP180;52915;53.718;19.946;2023-03-13T19:36:23;98467.40;;;9.60
65765;BMP180;52915;53.718;19.946;2023-03-13T19:41:27;98468.80;;;9.60
65765;BMP180;52915;53.718;19.946;2023-03-13T19:46:32;98464.80;;;9.60
65765;BMP180;52915;53.718;19.946;2023-03-13T19:51:46;98467.00;;;9.56
65765;BMP180;52915;53.718;19.946;2023-03-13T19:56:50;98459.00;;;9.50
65765;BMP180;52915;53.718;19.946;2023-03-13T20:02:00;98467.80;;;9.50
65765;BMP180;52915;53.718;19.946;2023-03-13T20:07:11;98477.60;;;9.50
65765;BMP180;52915;53.718;19.946;2023-03-13T20:12:16;98487.40;;;9.56
65765;BMP180;52915;53.718;19.946;2023-03-13T20:17:20;98482.00;;;9.60
65765;BMP180;52915;53.718;19.946;2023-03-13T20:22:25;98479.20;;;9.60
65765;BMP180;52915;53.718;19.946;2023-03-13T20:27:30;98469.40;;;9.64
65765;BMP180;52915;53.718;19.946;2023-03-13T20:32:35;98471.00;;;9.70
65765;BMP180;52915;53.718;19.946;2023-03-13T20:37:48;98474.80;;;9.62
65765;BMP180;52915;53.718;19.946;2023-03-13T20:42:55;98473.60;;;9.60
65765;BMP180;52915;53.718;19.946;2023-03-13T20:48:01;98462.80;;;9.66
65765;BMP180;52915;53.718;19.946;2023-03-13T20:53:06;98462.80;;;9.70
65765;BMP180;52915;53.718;19.946;2023-03-13T20:58:10;98468.80;;;9.70
65765;BMP180;52915;53.718;19.946;2023-03-13T21:03:15;98453.60;;;9.70
65765;BMP180;52915;53.718;19.946;2023-03-13T21:08:20;98447.80;;;9.70
65765;BMP180;52915;53.718;19.946;2023-03-13T21:13:24;98427.80;;;9.60
65765;BMP180;52915;53.718;19.946;2023-03-13T21:18:28;98425.80;;;9.70
65765;BMP180;52915;53.718;19.946;2023-03-13T21:23:32;98418.80;;;9.70
65765;BMP180;52915;53.718;19.946;2023-03-13T21:28:38;98421.80;;;9.70
65765;BMP180;52915;53.718;19.946;2023-03-13T21:33:44;98421.60;;;9.70
65765;BMP180;52915;53.718;19.946;2023-03-13T21:38:49;98407.80;;;9.70
65765;BMP180;52915;53.718;19.946;2023-03-13T21:43:55;98386.40;;;9.80
65765;BMP180;52915;53.718;19.946;2023-03-13T21:49:01;98373.00;;;9.80
65765;BMP180;52915;53.718;19.946;2023-03-13T21:54:05;98388.80;;;9.80
65765;BMP180;52915;53.718;19.946;2023-03-13T21:59:12;98392.60;;;9.90
65765;BMP180;52915;53.718;19.946;2023-03-13T22:04:26;98408.80;;;10.00
65765;BMP180;52915;53.718;19.946;2023-03-13T22:09:34;98409.60;;;10.08
65765;BMP180;52915;53.718;19.946;2023-03-13T22:14:43;98396.80;;;10.10
65765;BMP180;52915;53.718;19.946;2023-03-13T22:19:50;98403.00;;;10.10
65765;BMP180;52915;53.718;19.946;2023-03-13T22:25:02;98382.60;;;10.10
65765;BMP180;52915;53.718;19.946;2023-03-13T22:30:12;98374.40;;;10.20
65765;BMP180;52915;53.718;19.946;2023-03-13T22:35:27;98379.40;;;10.20
65765;BMP180;52915;53.718;19.946;2023-03-13T22:40:33;98381.00;;;10.20
65765;BMP180;52915;53.718;19.946;2023-03-13T22:45:41;98378.40;;;10.30
65765;BMP180;52915;53.718;19.946;2023-03-13T22:50:59;98366.40;;;10.30
65765;BMP180;52915;53.718;19.946;2023-03-13T22:56:05;98331.40;;;10.30
65765;BMP180;52915;53.718;19.946;2023-03-13T23:01:16;98322.20;;;10.30
65765;BMP180;52915;53.718;19.946;2023-03-13T23:06:23;98307.00;;;10.30
65765;BMP180;52915;53.718;19.946;2023-03-13T23:11:27;98286.00;;;10.30
65765;BMP180;52915;53.718;19.946;2023-03-13T23:16:31;98265.20;;;10.30
65765;BMP180;52915;53.718;19.946;2023-03-13T23:21:35;98272.00;;;10.30
65765;BMP180;52915;53.718;19.946;2023-03-13T23:26:39;98265.20;;;10.40
65765;BMP180;52915;53.718;19.946;2023-03-13T23:31:43;98264.80;;;10.40
65765;BMP180;52915;53.718;19.946;2023-03-13T23:36:48;98268.60;;;10.50
65765;BMP180;52915;53.718;19.946;2023-03-13T23:41:52;98277.00;;;10.60
65765;BMP180;52915;53.718;19.946;2023-03-13T23:46:56;98275.40;;;10.62
65765;BMP180;52915;53.718;19.946;2023-03-13T23:52:01;98291.20;;;10.70
65765;BMP180;52915;53.718;19.946;2023-03-13T23:57:05;98279.00;;;10.70
